Time;durP1;ratioP1;P1;durP2;ratioP2;P2;SDS_P1;SDS_P2;PMS_P1;PMS_P2;Temp;Humidity;BMP_temperature;BMP_pressure;BME280_temperature;BME280_humidity;BME280_pressure;Samples;Min_cycle;Max_cycle;Signal;HPM_P1;HPM_P2
2022/05/05 00:01:59;;;;;;;4.68;2.80;;;20.80;56.50;;;;;;4883818;28;89244;-91
2022/05/05 00:04:24;;;;;;;3.78;2.70;;;20.80;56.60;;;;;;4900287;28;89346;-93
2022/05/05 00:06:50;;;;;;;5.47;2.92;;;20.70;56.60;;;;;;4902412;28;86916;-92
2022/05/05 00:09:16;;;;;;;4.72;2.80;;;20.70;56.60;;;;;;4902933;28;86193;-83
2022/05/05 00:14:28;;;;;;;5.05;2.60;;;20.70;56.50;;;;;;4880005;28;88210;-90
2022/05/05 00:17:13;;;;;;;2.83;2.47;;;20.70;56.50;;;;;;4901564;28;87915;-90
2022/05/05 00:19:41;;;;;;;3.88;2.50;;;20.70;56.40;;;;;;4901296;28;87996;-94
2022/05/05 00:22:09;;;;;;;4.80;2.95;;;20.70;56.40;;;;;;4914782;28;89713;-92
2022/05/05 00:24:37;;;;;;;4.43;3.00;;;20.70;56.30;;;;;;4902543;28;87726;-90
2022/05/05 00:27:03;;;;;;;3.13;2.70;;;20.70;56.40;;;;;;4901459;28;86908;-92
2022/05/05 00:29:28;;;;;;;5.35;3.13;;;20.80;56.10;;;;;;4901639;28;87085;-92
2022/05/05 00:31:54;;;;;;;2.85;2.53;;;20.70;56.40;;;;;;4902619;28;88521;-82
2022/05/05 00:34:19;;;;;;;3.70;2.90;;;20.70;56.20;;;;;;4903258;28;87402;-85
2022/05/05 00:36:45;;;;;;;3.97;2.70;;;20.70;56.10;;;;;;4901510;28;87843;-88
2022/05/05 00:39:11;;;;;;;3.67;2.75;;;20.70;56.40;;;;;;4902180;28;87533;-89
2022/05/05 00:41:41;;;;;;;3.40;2.58;;;20.70;56.20;;;;;;4900056;28;88698;-90
2022/05/05 00:44:07;;;;;;;2.75;2.30;;;20.70;56.40;;;;;;4900589;28;88783;-91
2022/05/05 00:46:34;;;;;;;4.55;2.50;;;20.70;56.40;;;;;;4902356;28;87444;-91
2022/05/05 00:49:01;;;;;;;3.03;2.20;;;20.70;56.30;;;;;;4902731;28;87859;-90
2022/05/05 00:51:45;;;;;;;2.97;2.67;;;20.70;56.40;;;;;;4904976;28;88271;-93
2022/05/05 00:54:11;;;;;;;3.15;2.58;;;20.70;56.40;;;;;;4903116;28;90310;-90
2022/05/05 00:56:38;;;;;;;2.72;2.42;;;20.70;56.40;;;;;;4905031;28;86928;-89
2022/05/05 00:59:05;;;;;;;4.45;2.38;;;20.70;56.30;;;;;;4903786;28;87314;-84
2022/05/05 01:01:31;;;;;;;4.70;2.83;;;20.70;56.30;;;;;;4904880;28;87722;-93
2022/05/05 01:03:57;;;;;;;3.35;2.95;;;20.70;56.50;;;;;;4903463;28;90946;-89
2022/05/05 01:06:23;;;;;;;3.20;2.60;;;20.60;56.40;;;;;;4903077;28;88315;-87
2022/05/05 01:08:48;;;;;;;3.17;2.55;;;20.60;56.40;;;;;;4902892;28;89567;-89
2022/05/05 01:11:14;;;;;;;3.20;2.63;;;20.70;56.40;;;;;;4904708;28;88278;-89
2022/05/05 01:13:42;;;;;;;4.32;2.85;;;20.60;56.30;;;;;;4903450;28;88085;-90
2022/05/05 01:16:08;;;;;;;5.63;3.15;;;20.60;56.30;;;;;;4904329;28;87891;-85
2022/05/05 01:18:34;;;;;;;3.97;2.33;;;20.70;56.50;;;;;;4903832;28;87419;-88
2022/05/05 01:21:00;;;;;;;3.15;2.40;;;20.60;56.30;;;;;;4904219;28;88036;-87
2022/05/05 01:23:26;;;;;;;3.20;2.53;;;20.70;56.40;;;;;;4904437;28;87696;-88
2022/05/05 01:28:45;;;;;;;4.53;3.05;;;20.60;56.30;;;;;;4904262;28;87795;-91
2022/05/05 01:31:11;;;;;;;2.92;2.50;;;20.60;56.20;;;;;;4902331;28;88788;-93
2022/05/05 01:33:38;;;;;;;3.13;2.33;;;20.60;56.40;;;;;;4903730;28;88126;-88
2022/05/05 01:36:04;;;;;;;3.63;2.60;;;20.60;56.40;;;;;;4904810;28;87694;-94
2022/05/05 01:38:39;;;;;;;3.47;2.30;;;20.60;56.30;;;;;;4903689;28;88266;-87
2022/05/05 01:41:10;;;;;;;3.38;2.20;;;20.60;56.20;;;;;;4904083;28;88316;-87
2022/05/05 01:43:37;;;;;;;4.55;2.95;;;20.60;56.20;;;;;;4918660;28;86933;-92
2022/05/05 01:46:04;;;;;;;5.65;2.80;;;20.60;56.20;;;;;;4903696;28;87240;-87
2022/05/05 01:48:30;;;;;;;3.35;2.40;;;20.60;56.20;;;;;;4902436;28;86784;-86
2022/05/05 01:51:02;;;;;;;3.13;2.60;;;20.60;56.20;;;;;;4902638;28;90589;-90
2022/05/05 01:53:28;;;;;;;2.92;2.63;;;20.60;56.40;;;;;;4902876;28;88131;-91
2022/05/05 01:55:54;;;;;;;2.70;2.50;;;20.60;56.50;;;;;;4885172;28;88656;-90
2022/05/05 01:58:19;;;;;;;4.68;2.92;;;20.60;56.30;;;;;;4902421;28;87039;-88
2022/05/05 02:00:45;;;;;;;4.03;2.60;;;20.60;56.30;;;;;;4916549;28;91085;-89
2022/05/05 02:03:14;;;;;;;3.22;2.60;;;20.60;56.40;;;;;;4961194;23;88571;-66
2022/05/05 02:05:41;;;;;;;2.90;2.60;;;20.60;56.30;;;;;;4926264;28;87544;-68
2022/05/05 02:08:07;;;;;;;3.10;2.60;;;20.60;56.30;;;;;;4910560;28;90206;-71
2022/05/05 02:10:33;;;;;;;3.40;2.60;;;20.60;56.20;;;;;;4912278;28;88088;-70
2022/05/05 02:12:59;;;;;;;2.95;2.58;;;20.60;56.30;;;;;;4913149;28;86987;-70
2022/05/05 02:15:24;;;;;;;2.97;2.50;;;20.50;56.30;;;;;;4910856;28;87692;-69
2022/05/05 02:17:51;;;;;;;2.63;2.42;;;20.50;56.20;;;;;;4911796;28;87973;-67
2022/05/05 02:20:16;;;;;;;2.75;2.55;;;20.60;56.30;;;;;;4911742;28;88603;-71
2022/05/05 02:22:42;;;;;;;4.45;2.55;;;20.60;56.30;;;;;;4909782;28;92057;-70
2022/05/05 02:25:09;;;;;;;3.30;2.90;;;20.60;56.50;;;;;;4912770;28;87134;-70
2022/05/05 02:27:52;;;;;;;2.78;2.33;;;20.50;56.30;;;;;;4910424;28;90280;-67
2022/05/05 02:30:20;;;;;;;3.13;2.50;;;20.50;56.20;;;;;;4913103;28;88007;-70
2022/05/05 02:32:46;;;;;;;2.83;2.53;;;20.50;56.20;;;;;;4912348;28;87600;-67
2022/05/05 02:35:12;;;;;;;3.00;2.70;;;20.50;56.10;;;;;;4912894;28;86956;-69
2022/05/05 02:40:22;;;;;;;3.05;2.33;;;20.50;56.20;;;;;;4912956;28;88040;-70
2022/05/05 02:42:47;;;;;;;4.72;2.65;;;20.50;56.20;;;;;;4912911;28;87664;-67
2022/05/05 02:45:13;;;;;;;3.70;2.50;;;20.50;56.10;;;;;;4912658;28;88594;-69
2022/05/05 02:47:39;;;;;;;3.70;2.78;;;20.50;56.10;;;;;;4911624;28;87833;-69
2022/05/05 02:50:05;;;;;;;2.55;2.35;;;20.50;56.60;;;;;;4912147;28;87536;-67
2022/05/05 02:52:30;;;;;;;3.15;2.53;;;20.50;56.10;;;;;;4911441;28;90184;-66
2022/05/05 02:54:56;;;;;;;2.70;2.50;;;20.50;56.20;;;;;;4911833;28;87983;-70
2022/05/05 02:57:24;;;;;;;2.90;2.70;;;20.50;56.30;;;;;;4911741;28;87911;-72
2022/05/05 02:59:50;;;;;;;2.63;2.25;;;20.50;56.10;;;;;;4911178;28;88287;-69
2022/05/05 03:02:17;;;;;;;3.50;2.30;;;20.50;56.10;;;;;;4913119;28;87237;-64
2022/05/05 03:04:43;;;;;;;2.83;2.30;;;20.50;56.30;;;;;;4911539;28;86953;-68
2022/05/05 03:07:09;;;;;;;2.83;2.55;;;20.50;56.10;;;;;;4910330;28;88189;-71
2022/05/05 03:09:34;;;;;;;2.95;2.33;;;20.50;56.10;;;;;;4911315;28;88432;-66
2022/05/05 03:12:00;;;;;;;2.90;2.45;;;20.50;56.20;;;;;;4911608;28;88308;-70
2022/05/05 03:14:26;;;;;;;2.85;2.55;;;20.50;56.50;;;;;;4911996;28;87538;-68
2022/05/05 03:16:52;;;;;;;3.92;2.70;;;20.50;56.10;;;;;;4911531;28;87447;-66
2022/05/05 03:19:17;;;;;;;2.83;2.42;;;20.50;56.30;;;;;;4909411;28;90881;-68
2022/05/05 03:21:43;;;;;;;3.30;2.92;;;20.50;56.30;;;;;;4912216;28;89753;-69
2022/05/05 03:24:09;;;;;;;2.47;2.25;;;20.50;56.30;;;;;;4926430;28;87014;-71
2022/05/05 03:26:34;;;;;;;2.78;2.38;;;20.50;56.30;;;;;;4911289;28;87207;-70
2022/05/05 03:29:00;;;;;;;2.70;2.40;;;20.40;56.10;;;;;;4910187;28;87888;-70
2022/05/05 03:31:25;;;;;;;2.80;2.50;;;20.40;56.20;;;;;;4909803;28;89537;-70
2022/05/05 03:33:53;;;;;;;3.05;2.42;;;20.50;56.10;;;;;;4911638;28;88484;-68
2022/05/05 03:36:19;;;;;;;2.58;2.38;;;20.40;56.30;;;;;;4911968;28;88151;-70
2022/05/05 03:38:45;;;;;;;2.90;2.30;;;20.40;56.10;;;;;;4911571;28;87965;-67
2022/05/05 03:41:12;;;;;;;3.00;2.00;;;20.40;56.10;;;;;;4911934;28;87821;-68
2022/05/05 03:43:37;;;;;;;3.17;2.35;;;20.40;56.10;;;;;;4911484;28;87411;-69
2022/05/05 03:46:03;;;;;;;2.92;2.30;;;20.40;56.10;;;;;;4911365;28;87534;-68
2022/05/05 03:48:33;;;;;;;3.35;2.35;;;20.40;56.10;;;;;;4910626;28;88556;-71
2022/05/05 03:50:59;;;;;;;2.47;2.03;;;20.40;56.10;;;;;;4908962;28;90767;-71
2022/05/05 03:53:25;;;;;;;2.63;2.42;;;20.40;56.20;;;;;;4911022;28;87892;-70
2022/05/05 03:55:50;;;;;;;2.33;2.10;;;20.40;56.10;;;;;;4911197;28;87425;-66
2022/05/05 03:58:16;;;;;;;2.47;2.22;;;20.40;56.20;;;;;;4910868;28;88999;-70
2022/05/05 04:00:42;;;;;;;2.42;2.13;;;20.40;56.10;;;;;;4911626;28;87745;-64
2022/05/05 04:05:52;;;;;;;3.90;2.15;;;20.40;56.10;;;;;;4911145;28;86880;-69
2022/05/05 04:08:18;;;;;;;2.38;2.10;;;20.40;56.10;;;;;;4911192;28;87608;-70
2022/05/05 04:10:43;;;;;;;2.55;2.35;;;20.40;56.10;;;;;;4911074;28;87933;-70
2022/05/05 04:13:09;;;;;;;2.45;2.25;;;20.40;56.20;;;;;;4912232;28;87632;-70
2022/05/05 04:15:35;;;;;;;2.95;2.42;;;20.40;56.30;;;;;;4911131;28;87223;-66
2022/05/05 04:18:01;;;;;;;3.67;2.30;;;20.40;56.20;;;;;;4924486;28;91483;-71
2022/05/05 04:20:27;;;;;;;2.35;2.15;;;20.40;56.10;;;;;;4911005;28;88167;-73
2022/05/05 04:22:53;;;;;;;2.40;2.20;;;20.40;56.20;;;;;;4911024;28;88380;-69
2022/05/05 04:25:19;;;;;;;2.50;2.30;;;20.40;56.10;;;;;;4914846;28;88763;-71
2022/05/05 04:27:45;;;;;;;2.53;2.33;;;20.40;56.10;;;;;;4914224;28;87592;-71
2022/05/05 04:30:16;;;;;;;3.28;2.58;;;20.40;56.10;;;;;;4914444;28;87434;-71
2022/05/05 04:32:42;;;;;;;2.88;2.38;;;20.40;56.10;;;;;;4914230;28;88505;-66
2022/05/05 04:35:08;;;;;;;2.67;2.47;;;20.40;56.00;;;;;;4913371;28;88889;-70
2022/05/05 04:37:34;;;;;;;2.50;2.30;;;20.40;55.90;;;;;;4914511;28;88501;-69
2022/05/05 04:39:59;;;;;;;3.38;2.60;;;20.40;56.10;;;;;;4914404;28;88323;-68
2022/05/05 04:42:25;;;;;;;4.00;2.63;;;20.40;56.10;;;;;;4913022;28;87986;-69
2022/05/05 04:44:51;;;;;;;2.80;2.40;;;20.40;56.10;;;;;;4914096;28;87561;-70
2022/05/05 04:47:18;;;;;;;3.63;2.67;;;20.40;56.00;;;;;;4914276;28;89421;-67
2022/05/05 04:49:43;;;;;;;2.60;2.40;;;20.40;55.40;;;;;;4914484;28;88794;-71
2022/05/05 04:52:09;;;;;;;2.40;2.15;;;20.40;56.00;;;;;;4911785;28;87577;-70
2022/05/05 04:54:35;;;;;;;3.30;2.45;;;20.40;56.00;;;;;;4912211;28;90093;-68
2022/05/05 04:57:00;;;;;;;3.03;2.20;;;20.40;55.90;;;;;;4914535;28;87683;-68
2022/05/05 04:59:26;;;;;;;2.75;2.30;;;20.40;56.00;;;;;;4914261;28;88083;-69
2022/05/05 05:01:52;;;;;;;2.67;2.25;;;20.40;55.90;;;;;;4914495;28;87775;-70
2022/05/05 05:04:18;;;;;;;2.75;2.40;;;20.40;55.90;;;;;;4914333;28;86713;-65
2022/05/05 05:06:43;;;;;;;2.30;1.83;;;20.40;56.00;;;;;;4912905;28;88188;-72
2022/05/05 05:09:09;;;;;;;3.75;2.72;;;20.40;56.00;;;;;;4913818;28;87702;-68
2022/05/05 05:11:35;;;;;;;2.92;2.22;;;20.40;55.90;;;;;;4912241;28;89169;-70
2022/05/05 05:14:00;;;;;;;2.65;2.33;;;20.30;56.00;;;;;;4914057;28;87842;-66
2022/05/05 05:16:26;;;;;;;2.25;1.98;;;20.40;55.90;;;;;;4912504;28;88203;-65
2022/05/05 05:18:53;;;;;;;2.78;2.58;;;20.40;56.10;;;;;;4912934;28;87444;-70
2022/05/05 05:21:23;;;;;;;3.05;2.30;;;20.40;55.90;;;;;;4914327;28;87463;-66
2022/05/05 05:23:49;;;;;;;3.28;2.25;;;20.40;56.10;;;;;;4913813;28;86940;-67
2022/05/05 05:26:15;;;;;;;2.38;2.03;;;20.30;56.00;;;;;;4914342;28;88381;-71
2022/05/05 05:28:41;;;;;;;2.58;2.38;;;20.30;56.00;;;;;;4912997;28;87280;-68
2022/05/05 05:31:06;;;;;;;2.67;2.40;;;20.40;56.10;;;;;;4927786;28;87435;-64
2022/05/05 05:33:32;;;;;;;2.88;2.28;;;20.30;55.90;;;;;;4913100;28;87926;-68
2022/05/05 05:35:58;;;;;;;3.45;2.20;;;20.40;55.90;;;;;;4912157;28;89059;-69
2022/05/05 05:38:24;;;;;;;6.38;2.38;;;20.30;56.00;;;;;;4913643;28;88727;-67
2022/05/05 05:40:49;;;;;;;4.38;2.40;;;20.40;56.10;;;;;;4913465;28;87456;-69
2022/05/05 05:43:15;;;;;;;3.72;2.72;;;20.40;55.90;;;;;;4913511;28;87200;-70
2022/05/05 05:45:41;;;;;;;9.13;2.63;;;20.30;56.00;;;;;;4912909;28;88713;-70
2022/05/05 05:48:08;;;;;;;7.90;2.58;;;20.40;56.10;;;;;;4911856;28;88007;-65
2022/05/05 05:50:34;;;;;;;7.13;2.63;;;20.40;55.20;;;;;;4912727;28;87050;-68
2022/05/05 05:53:00;;;;;;;6.53;2.55;;;20.30;55.90;;;;;;4910346;28;89988;-69
2022/05/05 05:55:26;;;;;;;9.60;3.22;;;20.30;55.20;;;;;;4913299;28;88002;-64
2022/05/05 05:57:52;;;;;;;9.95;3.20;;;20.30;55.40;;;;;;4913354;28;88552;-70
2022/05/05 06:00:18;;;;;;;10.02;3.03;;;20.30;55.60;;;;;;4912917;28;88601;-69
2022/05/05 06:05:28;;;;;;;12.52;2.85;;;20.30;56.50;;;;;;4914455;28;88193;-70
2022/05/05 06:08:02;;;;;;;4.90;2.70;;;20.40;56.70;;;;;;4914552;28;88055;-70
2022/05/05 06:10:28;;;;;;;7.82;2.53;;;20.30;56.50;;;;;;4913989;28;88287;-66
2022/05/05 06:12:55;;;;;;;5.82;2.53;;;20.40;56.80;;;;;;4915232;28;87807;-65
2022/05/05 06:15:22;;;;;;;4.18;2.60;;;20.30;56.90;;;;;;4914322;28;87607;-71
2022/05/05 06:17:48;;;;;;;6.13;3.00;;;20.30;56.90;;;;;;4912572;28;88160;-67
2022/05/05 06:20:14;;;;;;;9.57;3.75;;;20.30;56.90;;;;;;4913316;28;87550;-67
2022/05/05 06:22:40;;;;;;;9.00;2.95;;;20.30;56.90;;;;;;4913604;28;88073;-70
2022/05/05 06:25:06;;;;;;;5.68;2.80;;;20.30;57.10;;;;;;4913153;28;88790;-68
2022/05/05 06:27:35;;;;;;;4.38;2.72;;;20.30;57.00;;;;;;4911492;28;88301;-67
2022/05/05 06:30:01;;;;;;;6.17;3.13;;;20.40;57.10;;;;;;4911989;28;87461;-71
2022/05/05 06:32:27;;;;;;;4.53;2.95;;;20.30;57.10;;;;;;4911796;28;87783;-70
2022/05/05 06:34:54;;;;;;;8.20;3.03;;;20.30;57.00;;;;;;4906672;28;89311;-70
2022/05/05 06:37:20;;;;;;;6.78;2.60;;;20.30;56.80;;;;;;4906707;28;88514;-69
2022/05/05 06:39:45;;;;;;;11.35;4.38;;;20.30;56.90;;;;;;4924900;28;87870;-69
2022/05/05 06:42:11;;;;;;;7.22;4.28;;;20.30;55.00;;;;;;4910485;28;90245;-70
2022/05/05 06:44:37;;;;;;;6.55;3.42;;;20.30;55.40;;;;;;4911034;28;88178;-69
2022/05/05 06:47:04;;;;;;;7.20;3.13;;;20.30;56.10;;;;;;4909909;28;87926;-71
2022/05/05 06:49:29;;;;;;;7.45;2.72;;;20.40;56.50;;;;;;4872899;28;88402;-70
2022/05/05 06:51:55;;;;;;;13.13;3.40;;;20.30;56.40;;;;;;4930212;28;88410;-66
2022/05/05 06:54:21;;;;;;;9.95;3.83;;;20.30;56.60;;;;;;4930779;28;87566;-70
2022/05/05 06:56:46;;;;;;;15.48;3.80;;;20.30;56.60;;;;;;4930402;28;88228;-70
2022/05/05 06:59:12;;;;;;;12.32;4.93;;;20.30;56.70;;;;;;4930761;28;87692;-72
2022/05/05 07:01:53;;;;;;;12.63;4.75;;;20.40;58.60;;;;;;4944106;28;90224;-72
2022/05/05 07:07:05;;;;;;;39.45;9.60;;;20.30;57.50;;;;;;4931204;28;87039;-71
2022/05/05 07:12:15;;;;;;;28.33;10.38;;;20.40;56.50;;;;;;4930096;28;87528;-72
2022/05/05 07:14:41;;;;;;;34.35;9.60;;;20.40;57.50;;;;;;4928276;28;91831;-73
2022/05/05 07:17:08;;;;;;;37.22;10.48;;;20.40;57.70;;;;;;4923924;28;90005;-72
2022/05/05 07:19:33;;;;;;;33.83;10.70;;;20.40;57.60;;;;;;4926534;28;87593;-73
2022/05/05 07:21:59;;;;;;;51.35;11.70;;;20.40;58.10;;;;;;4929114;28;87401;-72
2022/05/05 07:24:25;;;;;;;34.97;10.23;;;20.30;58.10;;;;;;4926823;28;90587;-72
2022/05/05 07:26:50;;;;;;;35.85;11.20;;;20.30;58.00;;;;;;4928959;28;87905;-72
2022/05/05 07:29:16;;;;;;;31.23;10.57;;;20.30;58.20;;;;;;4928785;28;87889;-72
2022/05/05 07:31:41;;;;;;;46.67;11.00;;;20.40;58.50;;;;;;4929483;28;86829;-72
2022/05/05 07:34:07;;;;;;;42.55;12.10;;;20.30;59.60;;;;;;4928989;28;87275;-72
2022/05/05 07:36:33;;;;;;;34.30;10.55;;;20.30;59.50;;;;;;4926707;28;90643;-72
2022/05/05 07:38:59;;;;;;;33.78;11.70;;;20.30;59.40;;;;;;4927636;28;88676;-71
2022/05/05 07:41:25;;;;;;;35.60;11.40;;;20.30;59.10;;;;;;4928953;28;87194;-71
2022/05/05 07:43:50;;;;;;;38.65;11.45;;;20.30;58.90;;;;;;4927403;28;88866;-71
2022/05/05 07:46:19;;;;;;;31.23;9.98;;;20.30;58.80;;;;;;4927165;28;88224;-71
2022/05/05 07:48:46;;;;;;;40.28;12.23;;;20.30;58.70;;;;;;4928570;28;87939;-74
2022/05/05 07:51:11;;;;;;;30.45;10.77;;;20.30;58.60;;;;;;4926540;28;90575;-70
2022/05/05 07:53:37;;;;;;;37.65;10.98;;;20.30;58.60;;;;;;4943036;28;91167;-71
2022/05/05 07:56:03;;;;;;;37.70;10.65;;;20.40;58.60;;;;;;4929395;28;87868;-71
2022/05/05 07:58:28;;;;;;;34.33;11.23;;;20.40;58.60;;;;;;4927845;28;87885;-70
2022/05/05 08:00:54;;;;;;;31.85;10.20;;;20.50;58.40;;;;;;4927471;28;89147;-71
2022/05/05 08:03:20;;;;;;;40.22;11.88;;;20.50;58.40;;;;;;4927859;28;89178;-71
2022/05/05 08:05:45;;;;;;;37.58;12.15;;;20.50;58.50;;;;;;4941929;28;91179;-71
2022/05/05 08:08:11;;;;;;;31.25;10.43;;;20.50;70.20;;;;;;4928661;28;87296;-70
2022/05/05 08:10:37;;;;;;;35.78;11.63;;;20.40;70.00;;;;;;4926677;28;89471;-71
2022/05/05 08:13:04;;;;;;;32.33;11.63;;;20.40;70.90;;;;;;4926533;28;90658;-71
2022/05/05 08:15:30;;;;;;;29.85;10.55;;;20.40;68.30;;;;;;4927345;28;88052;-73
2022/05/05 08:17:56;;;;;;;24.75;11.07;;;20.40;65.40;;;;;;4926403;28;87301;-71
2022/05/05 08:20:21;;;;;;;26.38;9.18;;;20.30;62.10;;;;;;4926504;28;90062;-70
2022/05/05 08:22:47;;;;;;;31.25;11.13;;;20.30;62.10;;;;;;4928136;28;87751;-71
2022/05/05 08:30:41;;;;;;;34.08;12.77;;;20.30;69.90;;;;;;4928826;28;87894;-70
2022/05/05 08:33:07;;;;;;;30.27;13.20;;;20.40;72.00;;;;;;4928612;28;87694;-72
2022/05/05 08:35:33;;;;;;;34.05;16.20;;;20.30;70.70;;;;;;4928168;28;87877;-74
2022/05/05 08:37:58;;;;;;;36.38;16.38;;;20.30;69.50;;;;;;4927592;28;87042;-71
2022/05/05 08:40:26;;;;;;;36.42;16.98;;;20.30;66.30;;;;;;4926501;28;88157;-71
2022/05/05 08:42:53;;;;;;;33.08;17.02;;;20.20;65.90;;;;;;4926710;28;89520;-74
2022/05/05 08:45:19;;;;;;;36.28;18.13;;;20.20;65.00;;;;;;4926179;28;90662;-71
2022/05/05 08:47:47;;;;;;;30.48;17.10;;;20.20;64.20;;;;;;4926651;28;87644;-71
2022/05/05 08:50:15;;;;;;;35.70;17.85;;;20.20;63.60;;;;;;4929013;28;87801;-71
2022/05/05 08:52:50;;;;;;;36.25;18.35;;;20.20;63.40;;;;;;4925528;28;89631;-70
2022/05/05 08:55:20;;;;;;;33.90;18.00;;;20.20;63.00;;;;;;4926094;28;92497;-71
2022/05/05 08:57:46;;;;;;;29.50;18.13;;;20.20;62.40;;;;;;4927841;28;87412;-70
2022/05/05 09:00:14;;;;;;;32.38;19.17;;;20.20;61.60;;;;;;4942385;28;89164;-72
2022/05/05 09:02:40;;;;;;;39.50;21.40;;;20.20;61.30;;;;;;4926686;28;90656;-70
2022/05/05 09:05:07;;;;;;;31.75;18.88;;;20.20;61.30;;;;;;4928279;28;88449;-71
2022/05/05 09:07:51;;;;;;;32.33;19.73;;;20.20;60.70;;;;;;4927841;28;87585;-69
2022/05/05 09:10:19;;;;;;;31.77;19.73;;;20.20;60.40;;;;;;4929409;28;89860;-71
2022/05/05 09:13:01;;;;;;;27.98;15.88;;;20.20;60.30;;;;;;4931327;28;88057;-71
2022/05/05 09:15:32;;;;;;;27.42;16.50;;;20.20;61.90;;;;;;4931082;28;88057;-71
2022/05/05 09:18:33;;;;;;;26.17;14.45;;;20.20;62.50;;;;;;4943811;28;88798;-72
2022/05/05 09:21:04;;;;;;;27.38;15.95;;;20.30;62.80;;;;;;4934682;28;90110;-74
2022/05/05 09:23:33;;;;;;;27.67;15.23;;;20.30;62.20;;;;;;4930155;28;88998;-72
2022/05/05 09:26:04;;;;;;;25.65;15.40;;;20.30;62.30;;;;;;4928273;28;87940;-75
2022/05/05 09:28:35;;;;;;;26.20;14.82;;;20.20;62.20;;;;;;4929288;28;87627;-71
2022/05/05 09:31:06;;;;;;;31.83;15.15;;;20.30;62.50;;;;;;4931146;28;88300;-68
2022/05/05 09:33:38;;;;;;;29.48;14.35;;;20.30;61.90;;;;;;4931338;28;88173;-70
2022/05/05 09:36:05;;;;;;;27.02;15.20;;;20.30;62.00;;;;;;4931838;28;88029;-70
2022/05/05 09:39:03;;;;;;;26.25;14.15;;;20.30;61.90;;;;;;4946977;28;87009;-70
2022/05/05 09:41:34;;;;;;;28.00;14.13;;;20.30;61.70;;;;;;4931707;28;87432;-71
2022/05/05 09:44:11;;;;;;;24.92;13.85;;;20.30;61.90;;;;;;4931020;28;89044;-70
2022/05/05 09:46:37;;;;;;;23.65;13.65;;;20.40;61.90;;;;;;4930986;28;89278;-70
2022/05/05 09:49:08;;;;;;;27.15;14.13;;;20.30;62.10;;;;;;4932303;28;87557;-70
2022/05/05 09:51:40;;;;;;;28.23;15.90;;;20.30;62.50;;;;;;4932324;28;87493;-73
2022/05/05 09:59:45;;;;;;;35.97;15.45;;;20.40;63.30;;;;;;4932019;28;87500;-70
2022/05/05 10:05:17;;;;;;;25.02;13.27;;;20.40;63.40;;;;;;4930361;28;87570;-70
2022/05/05 10:07:45;;;;;;;28.80;13.10;;;20.40;63.20;;;;;;4931665;28;87377;-71
2022/05/05 10:10:13;;;;;;;29.85;13.63;;;20.40;62.80;;;;;;4930314;28;88674;-72
2022/05/05 10:12:40;;;;;;;32.10;12.03;;;20.50;63.00;;;;;;4931330;28;86901;-72
2022/05/05 10:15:06;;;;;;;25.67;13.43;;;20.50;61.60;;;;;;4931650;28;87730;-72
2022/05/05 10:17:35;;;;;;;23.42;11.65;;;20.50;61.50;;;;;;4928872;28;88597;-70
2022/05/05 10:20:02;;;;;;;23.95;12.80;;;20.50;61.80;;;;;;4931884;28;88016;-71
2022/05/05 10:22:45;;;;;;;30.15;12.95;;;20.50;62.90;;;;;;4929715;28;88088;-73
2022/05/05 10:25:17;;;;;;;36.10;13.13;;;20.50;61.90;;;;;;4944838;28;89872;-72
2022/05/05 10:27:43;;;;;;;30.30;13.68;;;20.50;62.00;;;;;;4930818;28;87740;-72
2022/05/05 10:30:16;;;;;;;29.10;12.55;;;20.50;62.10;;;;;;4929087;28;88433;-73
2022/05/05 10:32:42;;;;;;;24.52;13.40;;;20.40;62.30;;;;;;4931686;28;87911;-70
2022/05/05 10:35:21;;;;;;;45.30;15.00;;;20.40;62.50;;;;;;4930122;28;88478;-71
2022/05/05 10:37:47;;;;;;;32.95;14.98;;;20.40;62.00;;;;;;4931215;28;87815;-73
2022/05/05 10:40:13;;;;;;;35.25;15.18;;;20.40;62.00;;;;;;4931003;28;88019;-71
2022/05/05 10:42:41;;;;;;;36.10;15.20;;;20.40;62.00;;;;;;4930531;28;88986;-70
2022/05/05 10:45:18;;;;;;;31.25;15.20;;;20.40;62.00;;;;;;4929348;28;90472;-71
2022/05/05 10:47:50;;;;;;;34.05;14.70;;;20.40;61.90;;;;;;4931308;28;87947;-71
2022/05/05 10:53:40;;;;;;;27.48;13.20;;;20.40;61.90;;;;;;4931738;28;86876;-70
2022/05/05 10:56:25;;;;;;;31.80;13.60;;;20.40;61.70;;;;;;4931216;28;87816;-70
2022/05/05 10:59:04;;;;;;;29.67;13.20;;;20.40;61.60;;;;;;4930579;28;87931;-71
2022/05/05 11:01:53;;;;;;;43.97;15.52;;;20.40;61.60;;;;;;4930750;28;88843;-70
2022/05/05 11:04:20;;;;;;;28.30;14.43;;;20.40;61.60;;;;;;4925984;28;88076;-70
2022/05/05 11:06:49;;;;;;;35.65;14.30;;;20.40;61.70;;;;;;4930373;28;88089;-71
2022/05/05 11:09:37;;;;;;;30.23;14.07;;;20.40;61.60;;;;;;4928529;28;90373;-71
2022/05/05 11:12:17;;;;;;;32.43;14.10;;;20.40;61.80;;;;;;4945744;28;88056;-73
2022/05/05 11:23:39;;;;;;;28.00;12.60;;;20.40;61.70;;;;;;4931025;28;87978;-73
2022/05/05 11:26:05;;;;;;;27.42;12.63;;;20.40;61.50;;;;;;4929977;28;87451;-70
2022/05/05 11:28:31;;;;;;;28.15;13.95;;;20.40;61.40;;;;;;4930522;28;89038;-70
2022/05/05 11:30:56;;;;;;;35.08;14.40;;;20.40;61.30;;;;;;4931422;28;88454;-70
2022/05/05 11:33:22;;;;;;;31.73;13.73;;;20.40;61.40;;;;;;4929534;28;88177;-74
2022/05/05 11:35:58;;;;;;;26.80;13.10;;;20.40;61.40;;;;;;4929531;28;89207;-71
2022/05/05 11:38:26;;;;;;;23.67;13.68;;;20.40;62.20;;;;;;4928770;28;90699;-73
2022/05/05 11:41:02;;;;;;;30.15;14.57;;;20.40;61.30;;;;;;4928716;28;90224;-70
2022/05/05 11:46:14;;;;;;;23.00;12.48;;;20.40;61.00;;;;;;4931491;28;87032;-70
2022/05/05 11:48:43;;;;;;;30.92;13.52;;;20.40;61.10;;;;;;4931054;28;87605;-70
2022/05/05 11:51:09;;;;;;;26.38;14.10;;;20.40;61.00;;;;;;4930766;28;87485;-71
2022/05/05 11:53:35;;;;;;;28.05;13.40;;;20.40;60.90;;;;;;4929967;28;88871;-73
2022/05/05 11:56:01;;;;;;;25.48;13.10;;;20.40;60.90;;;;;;4930543;28;87439;-73
2022/05/05 12:04:02;;;;;;;23.85;13.05;;;20.40;61.20;;;;;;4929451;28;87733;-70
2022/05/05 12:06:30;;;;;;;27.30;12.75;;;20.40;60.90;;;;;;4929732;28;87262;-70
2022/05/05 12:08:56;;;;;;;29.60;13.18;;;20.40;60.90;;;;;;4930180;28;89214;-71
2022/05/05 12:11:25;;;;;;;25.17;13.55;;;20.40;60.90;;;;;;4930618;28;87372;-71
2022/05/05 12:13:50;;;;;;;26.47;12.73;;;20.40;60.80;;;;;;4930536;28;87452;-70
2022/05/05 12:16:19;;;;;;;27.35;12.85;;;20.40;60.80;;;;;;4930247;28;87566;-70
2022/05/05 12:18:53;;;;;;;28.13;12.90;;;20.40;60.70;;;;;;4929886;28;88668;-69
2022/05/05 12:21:26;;;;;;;25.25;13.32;;;20.40;60.50;;;;;;4929778;28;88345;-71
2022/05/05 12:24:02;;;;;;;25.27;12.35;;;20.40;60.40;;;;;;4929791;28;87354;-70
2022/05/05 12:26:34;;;;;;;28.05;13.60;;;20.40;60.40;;;;;;4930154;28;88191;-70
2022/05/05 12:29:00;;;;;;;25.95;13.50;;;20.40;60.50;;;;;;4929670;28;87877;-70
2022/05/05 12:31:29;;;;;;;21.45;12.88;;;20.40;60.70;;;;;;4930816;28;87874;-70
2022/05/05 12:33:55;;;;;;;24.25;12.25;;;20.40;60.60;;;;;;4930179;28;87736;-70
2022/05/05 12:36:28;;;;;;;24.48;12.27;;;20.40;60.50;;;;;;4945327;28;89828;-70
2022/05/05 12:39:10;;;;;;;23.55;12.45;;;20.40;60.60;;;;;;4929752;28;88116;-70
2022/05/05 12:41:35;;;;;;;25.98;12.18;;;20.40;60.50;;;;;;4928174;28;90089;-72
2022/05/05 12:44:08;;;;;;;22.73;12.73;;;20.40;60.40;;;;;;4929615;28;89137;-73
2022/05/05 12:46:34;;;;;;;19.35;12.25;;;20.40;60.40;;;;;;4933120;28;87368;-73
2022/05/05 12:49:00;;;;;;;24.73;12.45;;;20.40;60.40;;;;;;4947938;28;90025;-73
2022/05/05 12:51:30;;;;;;;21.05;12.40;;;20.40;60.40;;;;;;4933184;28;88010;-73
2022/05/05 12:59:36;;;;;;;20.60;11.80;;;20.40;60.60;;;;;;4932871;28;87606;-72
2022/05/05 13:02:04;;;;;;;21.88;11.63;;;20.40;60.60;;;;;;4931618;28;90838;-73
2022/05/05 13:04:30;;;;;;;22.23;12.57;;;20.40;60.50;;;;;;4932884;28;87927;-72
2022/05/05 13:06:55;;;;;;;22.02;12.05;;;20.40;60.50;;;;;;4933073;28;88306;-72
2022/05/05 13:09:21;;;;;;;21.38;11.07;;;20.40;60.20;;;;;;4931919;28;88379;-71
2022/05/05 13:11:51;;;;;;;19.60;11.02;;;20.40;60.30;;;;;;4932235;28;88786;-71
2022/05/05 13:14:21;;;;;;;20.42;11.10;;;20.50;60.30;;;;;;4931704;28;87793;-71
2022/05/05 13:16:48;;;;;;;20.40;11.10;;;20.40;60.50;;;;;;4932067;28;88040;-72
2022/05/05 13:19:13;;;;;;;18.13;10.55;;;20.40;61.40;;;;;;4931000;28;92794;-70
2022/05/05 13:21:40;;;;;;;21.48;11.43;;;20.50;60.60;;;;;;4932946;28;88571;-71
2022/05/05 13:24:10;;;;;;;17.42;9.75;;;20.40;60.50;;;;;;4931144;28;87831;-71
2022/05/05 13:26:42;;;;;;;23.83;11.73;;;20.40;60.30;;;;;;4931926;28;86779;-71
2022/05/05 13:29:08;;;;;;;17.77;9.85;;;20.50;60.70;;;;;;4929622;28;89642;-70
2022/05/05 13:31:34;;;;;;;20.23;11.50;;;20.50;59.00;;;;;;4932679;28;87924;-71
2022/05/05 13:33:59;;;;;;;20.00;10.63;;;20.50;59.80;;;;;;4932705;28;88508;-72
2022/05/05 13:36:25;;;;;;;20.48;10.82;;;20.50;60.60;;;;;;4932569;28;87313;-71
2022/05/05 13:38:51;;;;;;;19.23;10.57;;;20.50;59.80;;;;;;4930431;28;90887;-72
2022/05/05 13:41:16;;;;;;;21.40;11.73;;;20.50;59.60;;;;;;4931752;28;87978;-70